createdAt,value
2022-12-29T00:01:40.140Z,3.00
2022-12-29T00:04:12.836Z,3.10
2022-12-29T00:06:39.457Z,3.38
2022-12-29T00:09:06.210Z,2.85
2022-12-29T00:11:32.815Z,3.08
2022-12-29T00:14:22.762Z,2.95
2022-12-29T00:16:52.275Z,3.20
2022-12-29T00:19:37.645Z,3.00
2022-12-29T00:22:22.787Z,2.85
2022-12-29T00:25:01.181Z,3.60
2022-12-29T00:27:48.220Z,3.30
2022-12-29T00:30:39.341Z,3.20
2022-12-29T00:33:31.909Z,3.33
2022-12-29T00:36:03.586Z,3.28
2022-12-29T00:38:54.358Z,3.20
2022-12-29T00:41:41.168Z,2.95
2022-12-29T00:44:11.214Z,3.03
2022-12-29T00:46:40.047Z,2.90
2022-12-29T00:49:31.177Z,2.88
2022-12-29T00:52:00.836Z,3.10
2022-12-29T00:54:31.494Z,3.20
2022-12-29T00:56:58.337Z,3.30
2022-12-29T00:59:27.751Z,3.03
2022-12-29T01:01:57.165Z,3.28
2022-12-29T01:04:25.964Z,3.20
2022-12-29T01:06:52.838Z,3.03
2022-12-29T01:09:41.453Z,3.05
2022-12-29T01:12:10.143Z,3.13
2022-12-29T01:14:37.835Z,3.13
2022-12-29T01:17:08.069Z,3.33
2022-12-29T01:19:37.909Z,3.10
2022-12-29T01:22:04.438Z,3.25
2022-12-29T01:24:30.915Z,3.20
2022-12-29T01:26:57.499Z,2.92
2022-12-29T01:29:24.191Z,3.25
2022-12-29T01:31:51.125Z,3.17
2022-12-29T01:34:20.858Z,2.90
2022-12-29T01:36:48.535Z,2.83
2022-12-29T01:39:15.036Z,3.15
2022-12-29T01:41:42.778Z,2.90
2022-12-29T01:44:46.791Z,2.88
2022-12-29T01:47:19.864Z,2.93
2022-12-29T01:49:46.810Z,2.58
2022-12-29T01:52:16.240Z,3.00
2022-12-29T01:54:51.932Z,2.72
2022-12-29T01:57:26.811Z,2.90
2022-12-29T02:00:08.324Z,3.10
2022-12-29T02:02:45.727Z,2.83
2022-12-29T02:05:34.175Z,2.80
2022-12-29T02:08:02.132Z,2.67
2022-12-29T02:10:32.370Z,3.05
2022-12-29T02:12:58.848Z,2.60
2022-12-29T02:16:04.446Z,2.55
2022-12-29T02:18:44.840Z,3.22
2022-12-29T02:21:30.224Z,2.88
2022-12-29T02:23:59.639Z,2.80
2022-12-29T02:26:56.146Z,2.95
2022-12-29T02:29:49.255Z,2.55
2022-12-29T02:32:30.812Z,3.00
2022-12-29T02:39:29.768Z,2.63
2022-12-29T02:42:12.167Z,2.70
2022-12-29T02:44:59.947Z,2.55
2022-12-29T02:47:36.238Z,2.65
2022-12-29T02:50:32.289Z,2.22
2022-12-29T02:53:03.171Z,2.80
2022-12-29T02:55:29.649Z,2.60
2022-12-29T02:58:21.736Z,2.70
2022-12-29T03:01:04.553Z,2.42
2022-12-29T03:03:49.108Z,2.33
2022-12-29T03:06:36.452Z,2.42
2022-12-29T03:09:19.001Z,2.50
2022-12-29T03:12:21.137Z,2.45
2022-12-29T03:15:30.456Z,2.80
2022-12-29T03:18:07.273Z,2.35
2022-12-29T03:20:46.140Z,2.30
2022-12-29T03:23:14.978Z,2.50
2022-12-29T03:25:47.050Z,2.35
2022-12-29T03:28:21.906Z,2.13
2022-12-29T03:30:48.909Z,2.00
2022-12-29T03:33:24.910Z,2.20
2022-12-29T03:38:26.345Z,2.10
2022-12-29T03:40:57.754Z,2.08
2022-12-29T03:43:27.990Z,2.22
2022-12-29T03:45:55.135Z,2.10
2022-12-29T03:48:21.759Z,2.15
2022-12-29T03:50:49.778Z,2.25
2022-12-29T03:53:17.232Z,2.20
2022-12-29T03:55:43.800Z,2.17
2022-12-29T03:58:11.467Z,2.10
2022-12-29T04:00:50.385Z,2.08
2022-12-29T04:03:17.728Z,2.08
2022-12-29T04:05:45.197Z,2.00
2022-12-29T04:08:11.787Z,2.28
2022-12-29T04:10:38.533Z,2.05
2022-12-29T04:13:06.068Z,1.90
2022-12-29T04:15:32.844Z,2.08
2022-12-29T04:17:59.706Z,1.85
2022-12-29T04:20:45.535Z,1.73
2022-12-29T04:23:12.835Z,2.17
2022-12-29T04:25:40.205Z,2.15
2022-12-29T04:28:09.002Z,2.10
2022-12-29T04:31:05.568Z,2.15
2022-12-29T04:33:38.533Z,2.00
2022-12-29T04:36:06.675Z,2.17
2022-12-29T04:38:35.490Z,2.00
2022-12-29T04:41:04.128Z,1.83
2022-12-29T04:43:31.225Z,2.05
2022-12-29T04:46:16.445Z,2.13
2022-12-29T04:48:49.499Z,2.20
2022-12-29T04:51:31.516Z,1.90
2022-12-29T04:53:58.007Z,1.83
2022-12-29T04:56:25.736Z,2.33
2022-12-29T04:58:52.225Z,1.70
2022-12-29T05:01:20.387Z,2.22
2022-12-29T05:03:47.108Z,1.60
2022-12-29T05:06:13.584Z,1.92
2022-12-29T05:08:40.087Z,1.95
2022-12-29T05:11:06.716Z,1.90
2022-12-29T05:13:34.024Z,1.80
2022-12-29T05:16:01.376Z,2.00
2022-12-29T05:18:28.068Z,1.90
2022-12-29T05:20:54.498Z,1.95
2022-12-29T05:23:22.935Z,1.95
2022-12-29T05:25:55.719Z,1.85
2022-12-29T05:28:38.952Z,2.00
2022-12-29T05:31:11.836Z,1.88
2022-12-29T05:33:38.912Z,2.05
2022-12-29T05:36:07.046Z,2.00
2022-12-29T05:38:34.850Z,1.63
2022-12-29T05:41:01.904Z,1.90
2022-12-29T05:43:50.739Z,1.83
2022-12-29T05:46:29.489Z,1.77
2022-12-29T05:49:06.209Z,1.73
2022-12-29T05:51:37.795Z,1.90
2022-12-29T05:54:04.884Z,1.70
2022-12-29T05:56:31.474Z,2.00
2022-12-29T05:58:59.140Z,1.83
2022-12-29T06:01:25.787Z,1.90
2022-12-29T06:03:53.815Z,1.95
2022-12-29T06:06:20.973Z,2.00
2022-12-29T06:08:47.652Z,1.92
2022-12-29T06:11:14.447Z,1.80
2022-12-29T06:13:47.390Z,1.60
2022-12-29T06:16:13.995Z,1.60
2022-12-29T06:18:43.159Z,1.80
2022-12-29T06:21:09.821Z,1.73
2022-12-29T06:23:36.907Z,1.83
2022-12-29T06:26:04.649Z,2.17
2022-12-29T06:28:32.758Z,1.60
2022-12-29T06:30:59.928Z,1.80
2022-12-29T06:33:27.283Z,1.60
2022-12-29T06:35:53.754Z,1.63
2022-12-29T06:38:20.185Z,1.90
2022-12-29T06:40:46.806Z,1.83
2022-12-29T06:43:33.164Z,1.75
2022-12-29T06:46:16.911Z,1.75
2022-12-29T06:48:43.668Z,1.60
2022-12-29T06:51:10.101Z,1.75
2022-12-29T06:53:36.591Z,1.83
2022-12-29T06:56:02.985Z,1.60
2022-12-29T06:58:29.632Z,1.50
2022-12-29T07:00:56.112Z,1.70
2022-12-29T07:03:22.697Z,1.60
2022-12-29T07:05:49.165Z,1.70
2022-12-29T07:08:15.845Z,2.20
2022-12-29T07:10:43.779Z,2.17
2022-12-29T07:13:13.146Z,2.25
2022-12-29T07:15:39.575Z,1.80
2022-12-29T07:18:06.032Z,2.00
2022-12-29T07:20:32.863Z,1.85
2022-12-29T07:22:59.526Z,2.20
2022-12-29T07:25:26.065Z,1.58
2022-12-29T07:27:52.566Z,1.80
2022-12-29T07:30:19.119Z,1.90
2022-12-29T07:32:45.543Z,1.83
2022-12-29T07:35:12.010Z,1.90
2022-12-29T07:37:38.480Z,1.58
2022-12-29T07:40:05.683Z,1.90
2022-12-29T07:42:32.568Z,1.60
2022-12-29T07:44:59.787Z,1.63
2022-12-29T07:47:30.342Z,1.48
2022-12-29T07:49:57.266Z,1.45
2022-12-29T07:52:23.781Z,1.30
2022-12-29T07:54:50.235Z,1.20
2022-12-29T07:57:16.639Z,1.20
2022-12-29T07:59:43.087Z,1.20
2022-12-29T08:02:12.431Z,1.50
2022-12-29T08:04:39.125Z,1.50
2022-12-29T08:07:05.776Z,1.10
2022-12-29T08:09:32.448Z,1.20
2022-12-29T08:11:58.887Z,1.17
2022-12-29T08:14:25.479Z,1.33
2022-12-29T08:16:51.893Z,1.85
2022-12-29T08:19:18.421Z,1.13
2022-12-29T08:21:44.969Z,1.20
2022-12-29T08:24:11.605Z,1.13
2022-12-29T08:26:38.120Z,1.30
2022-12-29T08:29:04.579Z,1.20
2022-12-29T08:31:31.059Z,1.15
2022-12-29T08:33:57.534Z,1.10
2022-12-29T08:36:23.986Z,1.17
2022-12-29T08:38:50.418Z,1.40
2022-12-29T08:41:17.014Z,1.10
2022-12-29T08:43:47.429Z,1.08
2022-12-29T08:46:14.045Z,1.02
2022-12-29T08:48:40.499Z,1.00
2022-12-29T08:51:06.990Z,1.05
2022-12-29T08:53:33.414Z,0.80
2022-12-29T08:56:05.195Z,1.00
2022-12-29T08:58:41.715Z,1.10
2022-12-29T09:01:08.645Z,0.82
2022-12-29T09:04:12.931Z,1.20
2022-12-29T09:06:21.963Z,1.15
2022-12-29T09:08:48.546Z,1.00
2022-12-29T09:11:18.841Z,1.40
2022-12-29T09:13:45.731Z,1.75
2022-12-29T09:16:12.370Z,2.10
2022-12-29T09:18:40.119Z,2.55
2022-12-29T09:21:07.578Z,2.45
2022-12-29T09:23:35.137Z,2.13
2022-12-29T09:26:01.984Z,2.10
2022-12-29T09:28:29.920Z,1.60
2022-12-29T09:30:57.791Z,1.67
2022-12-29T09:33:24.891Z,1.65
2022-12-29T09:35:54.051Z,1.70
2022-12-29T09:38:21.207Z,1.52
2022-12-29T09:40:58.394Z,1.52
2022-12-29T09:43:54.565Z,1.73
2022-12-29T09:46:37.830Z,1.70
2022-12-29T09:49:17.360Z,1.50
2022-12-29T09:51:49.005Z,1.70
2022-12-29T09:54:40.262Z,1.35
2022-12-29T09:57:24.325Z,1.63
2022-12-29T09:59:54.557Z,1.60
2022-12-29T10:02:33.378Z,1.20
2022-12-29T10:05:00.057Z,1.90
2022-12-29T10:07:41.685Z,1.77
2022-12-29T10:10:17.690Z,1.50
2022-12-29T10:12:57.396Z,1.50
2022-12-29T10:16:06.546Z,1.48
2022-12-29T10:18:41.808Z,1.58
2022-12-29T10:21:46.121Z,1.40
2022-12-29T10:24:13.680Z,1.80
2022-12-29T10:26:42.334Z,1.60
2022-12-29T10:29:21.398Z,1.55
2022-12-29T10:31:56.021Z,1.73
2022-12-29T10:34:28.385Z,1.85
2022-12-29T10:37:34.247Z,1.70
2022-12-29T10:40:12.156Z,1.90
2022-12-29T10:42:44.274Z,2.38
2022-12-29T10:45:17.206Z,1.67
2022-12-29T10:47:52.347Z,1.50
2022-12-29T10:50:19.936Z,1.70
2022-12-29T10:52:48.564Z,1.60
2022-12-29T10:55:23.220Z,1.90
2022-12-29T10:57:50.487Z,2.25
2022-12-29T11:00:22.535Z,2.92
2022-12-29T11:03:16.121Z,3.30
2022-12-29T11:06:10.025Z,4.22
2022-12-29T11:08:40.263Z,2.92
2022-12-29T11:11:09.612Z,2.92
2022-12-29T11:13:48.465Z,2.90
2022-12-29T11:16:14.957Z,2.30
2022-12-29T11:18:43.508Z,2.05
2022-12-29T11:21:34.161Z,2.10
2022-12-29T11:24:06.112Z,1.50
2022-12-29T11:26:35.124Z,2.42
2022-12-29T11:29:17.206Z,2.17
2022-12-29T11:31:45.259Z,2.00
2022-12-29T11:34:38.070Z,1.75
2022-12-29T11:37:10.988Z,1.80
2022-12-29T11:39:44.418Z,1.98
2022-12-29T11:42:17.484Z,2.17
2022-12-29T11:44:50.426Z,1.90
2022-12-29T11:47:44.549Z,2.03
2022-12-29T11:50:20.898Z,1.73
2022-12-29T11:52:50.523Z,1.77
2022-12-29T11:55:24.906Z,1.77
2022-12-29T11:57:52.955Z,1.75
2022-12-29T12:00:22.545Z,2.30
2022-12-29T12:03:15.012Z,1.90
2022-12-29T12:05:53.374Z,1.80
2022-12-29T12:08:36.701Z,2.20
2022-12-29T12:11:12.461Z,1.83
2022-12-29T12:13:43.757Z,2.03
2022-12-29T12:16:21.260Z,1.70
2022-12-29T12:19:03.041Z,2.00
2022-12-29T12:21:45.387Z,2.22
2022-12-29T12:24:43.491Z,1.80
2022-12-29T12:27:30.896Z,2.03
2022-12-29T12:30:16.413Z,2.40
2022-12-29T12:32:58.277Z,1.98
2022-12-29T12:39:14.154Z,2.30
2022-12-29T12:41:46.639Z,1.90
2022-12-29T12:44:21.380Z,2.17
2022-12-29T12:47:05.068Z,1.95
2022-12-29T12:50:09.451Z,2.10
2022-12-29T12:52:54.010Z,2.10
2022-12-29T12:55:57.881Z,2.10
2022-12-29T12:58:33.492Z,2.33
2022-12-29T13:01:17.621Z,1.80
2022-12-29T13:07:01.944Z,1.88
2022-12-29T13:09:47.328Z,2.22
2022-12-29T13:12:34.989Z,1.80
2022-12-29T13:15:10.620Z,2.08
2022-12-29T13:18:05.315Z,2.03
2022-12-29T13:20:40.800Z,2.10
2022-12-29T13:23:28.037Z,1.92
2022-12-29T13:26:13.589Z,2.15
2022-12-29T13:29:09.408Z,1.70
2022-12-29T13:32:17.405Z,1.98
2022-12-29T13:35:23.765Z,1.92
2022-12-29T13:38:02.592Z,1.65
2022-12-29T13:40:35.470Z,2.17
2022-12-29T13:43:02.777Z,2.08
2022-12-29T13:45:32.400Z,2.63
2022-12-29T13:48:07.481Z,2.05
2022-12-29T13:50:39.361Z,2.15
2022-12-29T13:53:28.100Z,2.22
2022-12-29T13:56:08.246Z,2.28
2022-12-29T13:58:57.744Z,2.00
2022-12-29T14:01:29.395Z,1.90
2022-12-29T14:03:58.503Z,2.00
2022-12-29T14:06:34.749Z,2.55
2022-12-29T14:09:31.792Z,1.83
2022-12-29T14:12:01.577Z,2.25
2022-12-29T14:14:32.476Z,1.88
2022-12-29T14:17:15.365Z,1.95
2022-12-29T14:19:44.929Z,2.33
2022-12-29T14:22:12.543Z,1.85
2022-12-29T14:24:46.553Z,2.20
2022-12-29T14:27:15.745Z,2.40
2022-12-29T14:29:42.214Z,2.17
2022-12-29T14:32:27.022Z,2.28
2022-12-29T14:34:57.613Z,2.10
2022-12-29T14:37:33.222Z,2.20
2022-12-29T14:40:19.571Z,2.38
2022-12-29T14:42:48.110Z,1.85
2022-12-29T14:45:14.453Z,1.85
2022-12-29T14:47:44.990Z,2.00
2022-12-29T14:50:11.379Z,2.13
2022-12-29T14:53:00.026Z,1.70
2022-12-29T14:55:43.715Z,1.85
2022-12-29T14:58:21.681Z,2.15
2022-12-29T15:00:49.346Z,2.05
2022-12-29T15:03:25.032Z,1.95
2022-12-29T15:06:13.947Z,1.85
2022-12-29T15:08:52.395Z,1.70
2022-12-29T15:11:25.058Z,1.85
2022-12-29T15:13:51.910Z,2.15
2022-12-29T15:16:27.442Z,1.92
2022-12-29T15:18:55.949Z,1.70
2022-12-29T15:21:30.022Z,1.65
2022-12-29T15:26:23.819Z,1.80
2022-12-29T15:28:55.528Z,2.15
2022-12-29T15:31:29.964Z,1.77
2022-12-29T15:34:10.894Z,1.90
2022-12-29T15:36:39.842Z,2.00
2022-12-29T15:39:29.574Z,2.25
2022-12-29T15:42:24.181Z,1.80
2022-12-29T15:44:58.067Z,2.00
2022-12-29T15:47:35.579Z,2.20
2022-12-29T15:50:06.323Z,1.90
2022-12-29T15:52:34.527Z,2.10
2022-12-29T15:55:03.118Z,1.90
2022-12-29T15:57:36.782Z,2.15
2022-12-29T16:00:05.475Z,2.03
2022-12-29T16:02:40.196Z,2.25
2022-12-29T16:05:17.795Z,1.70
2022-12-29T16:07:57.056Z,2.22
2022-12-29T16:10:31.318Z,2.10
2022-12-29T16:13:18.953Z,2.45
2022-12-29T16:15:51.834Z,2.28
2022-12-29T16:18:26.749Z,2.38
2022-12-29T16:20:55.364Z,2.20
2022-12-29T16:23:25.987Z,2.10
2022-12-29T16:25:55.570Z,2.25
2022-12-29T16:28:35.355Z,2.65
2022-12-29T16:31:07.316Z,2.05
2022-12-29T16:33:39.820Z,2.10
2022-12-29T16:36:33.239Z,2.40
2022-12-29T16:39:25.150Z,2.30
2022-12-29T16:41:52.206Z,2.60
2022-12-29T16:44:24.526Z,2.50
2022-12-29T16:47:20.320Z,3.40
2022-12-29T16:49:53.416Z,2.80
2022-12-29T16:52:24.405Z,2.75
2022-12-29T16:54:55.508Z,2.97
2022-12-29T16:57:25.780Z,3.13
2022-12-29T16:59:54.343Z,3.08
2022-12-29T17:02:24.329Z,2.80
2022-12-29T17:04:51.492Z,2.63
2022-12-29T17:07:23.127Z,3.15
2022-12-29T17:09:51.272Z,2.90
2022-12-29T17:12:24.138Z,2.95
2022-12-29T17:14:56.172Z,2.85
2022-12-29T17:17:33.550Z,2.60
2022-12-29T17:20:05.425Z,3.22
2022-12-29T17:22:32.776Z,3.05
2022-12-29T17:25:02.646Z,2.80
2022-12-29T17:27:37.965Z,3.03
2022-12-29T17:30:16.967Z,3.05
2022-12-29T17:32:49.653Z,2.67
2022-12-29T17:35:17.830Z,2.92
2022-12-29T17:37:44.641Z,2.83
2022-12-29T17:40:15.545Z,2.80
2022-12-29T17:42:47.618Z,2.90
2022-12-29T17:45:16.791Z,2.92
2022-12-29T17:47:44.129Z,3.33
2022-12-29T17:50:24.205Z,2.78
2022-12-29T17:53:03.129Z,3.10
2022-12-29T17:55:37.291Z,3.63
2022-12-29T17:58:25.374Z,3.38
2022-12-29T18:00:55.597Z,3.08
2022-12-29T18:03:26.916Z,3.00
2022-12-29T18:05:54.025Z,3.30
2022-12-29T18:08:20.730Z,3.63
2022-12-29T18:10:47.615Z,2.83
2022-12-29T18:13:40.344Z,3.10
2022-12-29T18:16:11.138Z,4.05
2022-12-29T18:18:38.539Z,3.90
2022-12-29T18:21:05.166Z,5.05
2022-12-29T18:23:35.261Z,5.43
2022-12-29T18:26:05.699Z,5.15
2022-12-29T18:28:32.182Z,4.95
2022-12-29T18:31:01.218Z,4.57
2022-12-29T18:33:28.607Z,4.78
2022-12-29T18:35:58.585Z,4.72
2022-12-29T18:38:25.581Z,4.70
2022-12-29T18:40:52.684Z,4.40
2022-12-29T18:43:19.553Z,4.28
2022-12-29T18:45:46.476Z,3.80
2022-12-29T18:48:17.410Z,3.88
2022-12-29T18:50:44.566Z,4.88
2022-12-29T18:53:16.734Z,4.18
2022-12-29T18:55:43.203Z,3.75
2022-12-29T18:58:09.597Z,4.10
2022-12-29T19:00:36.098Z,3.63
2022-12-29T19:03:02.574Z,3.88
2022-12-29T19:05:35.381Z,3.53
2022-12-29T19:08:02.059Z,3.53
2022-12-29T19:10:28.568Z,3.63
2022-12-29T19:12:55.088Z,3.58
2022-12-29T19:15:38.523Z,3.20
2022-12-29T19:20:59.331Z,3.63
2022-12-29T19:23:27.105Z,3.33
2022-12-29T19:25:55.651Z,3.80
2022-12-29T19:28:26.301Z,3.17
2022-12-29T19:30:57.473Z,3.25
2022-12-29T19:33:24.844Z,3.05
2022-12-29T19:35:52.202Z,3.75
2022-12-29T19:38:20.271Z,3.15
2022-12-29T19:40:51.213Z,3.00
2022-12-29T19:43:20.853Z,3.03
2022-12-29T19:45:48.417Z,3.35
2022-12-29T19:48:18.648Z,3.38
2022-12-29T19:50:45.489Z,3.67
2022-12-29T19:53:12.539Z,3.60
2022-12-29T19:55:43.901Z,3.72
2022-12-29T19:58:10.530Z,3.55
2022-12-29T20:00:40.844Z,4.25
2022-12-29T20:03:07.613Z,3.90
2022-12-29T20:05:34.238Z,3.75
2022-12-29T20:08:00.887Z,3.55
2022-12-29T20:10:27.396Z,3.53
2022-12-29T20:12:54.162Z,3.50
2022-12-29T20:15:20.752Z,3.63
2022-12-29T20:18:13.015Z,3.60
2022-12-29T20:20:34.743Z,3.03
2022-12-29T20:23:04.095Z,3.25
2022-12-29T20:25:47.343Z,2.90
2022-12-29T20:28:15.683Z,3.00
2022-12-29T20:30:42.769Z,3.08
2022-12-29T20:33:10.142Z,2.72
2022-12-29T20:35:37.289Z,2.70
2022-12-29T20:38:04.785Z,2.95
2022-12-29T20:40:31.369Z,2.67
2022-12-29T20:42:57.938Z,2.70
2022-12-29T20:45:24.965Z,2.50
2022-12-29T20:47:53.136Z,2.88
2022-12-29T20:50:21.174Z,3.08
2022-12-29T20:52:50.273Z,2.60
2022-12-29T20:55:20.011Z,2.60
2022-12-29T21:00:33.672Z,2.50
2022-12-29T21:03:01.366Z,2.90
2022-12-29T21:05:29.542Z,2.75
2022-12-29T21:07:56.674Z,2.47
2022-12-29T21:10:23.240Z,2.70
2022-12-29T21:12:50.060Z,2.50
2022-12-29T21:15:16.647Z,3.13
2022-12-29T21:17:44.028Z,2.50
2022-12-29T21:20:20.070Z,2.83
2022-12-29T21:22:48.300Z,2.97
2022-12-29T21:25:15.098Z,2.88
2022-12-29T21:27:44.050Z,2.47
2022-12-29T21:30:11.838Z,2.45
2022-12-29T21:32:38.823Z,2.45
2022-12-29T21:35:05.891Z,3.38
2022-12-29T21:37:32.468Z,2.72
2022-12-29T21:39:58.987Z,2.38
2022-12-29T21:42:27.548Z,2.28
2022-12-29T21:45:18.333Z,2.00
2022-12-29T21:48:05.651Z,2.60
2022-12-29T21:50:32.211Z,2.70
2022-12-29T21:52:58.784Z,2.13
2022-12-29T21:55:25.294Z,2.10
2022-12-29T21:58:10.262Z,2.38
2022-12-29T22:00:55.380Z,2.63
2022-12-29T22:03:40.306Z,2.85
2022-12-29T22:06:29.428Z,2.65
2022-12-29T22:09:14.622Z,2.50
2022-12-29T22:11:59.320Z,2.53
2022-12-29T22:14:25.950Z,1.98
2022-12-29T22:16:52.505Z,2.53
2022-12-29T22:19:19.034Z,2.28
2022-12-29T22:21:45.549Z,2.20
2022-12-29T22:24:12.081Z,1.95
2022-12-29T22:26:38.665Z,2.22
2022-12-29T22:29:05.290Z,2.13
2022-12-29T22:31:32.750Z,2.13
2022-12-29T22:34:04.281Z,2.08
2022-12-29T22:36:32.389Z,2.22
2022-12-29T22:38:59.214Z,2.53
2022-12-29T22:41:25.752Z,2.03
2022-12-29T22:43:52.626Z,2.15
2022-12-29T22:46:19.830Z,2.05
2022-12-29T22:48:46.482Z,2.67
2022-12-29T22:51:13.821Z,2.30
2022-12-29T22:53:41.276Z,2.17
2022-12-29T22:56:11.068Z,2.15
2022-12-29T22:58:46.506Z,2.20
2022-12-29T23:01:15.107Z,2.20
2022-12-29T23:03:42.552Z,1.88
2022-12-29T23:06:13.853Z,2.10
2022-12-29T23:08:40.911Z,2.42
2022-12-29T23:11:12.601Z,2.40
2022-12-29T23:13:42.077Z,2.47
2022-12-29T23:16:09.256Z,2.55
2022-12-29T23:18:39.556Z,2.20
2022-12-29T23:21:08.060Z,2.38
2022-12-29T23:23:57.015Z,2.13
2022-12-29T23:26:33.178Z,2.20
2022-12-29T23:29:05.157Z,2.03
2022-12-29T23:31:36.498Z,2.58
2022-12-29T23:34:08.033Z,2.10
2022-12-29T23:36:35.372Z,2.13
2022-12-29T23:39:02.135Z,2.70
2022-12-29T23:41:28.797Z,2.30
2022-12-29T23:43:55.913Z,2.65
2022-12-29T23:46:26.118Z,2.30
2022-12-29T23:48:53.785Z,2.20
2022-12-29T23:51:21.238Z,2.35
2022-12-29T23:53:48.300Z,2.80
2022-12-29T23:56:18.315Z,2.80
2022-12-29T23:58:45.517Z,2.40
